Time;durP1;ratioP1;P1;durP2;ratioP2;P2;SDS_P1;SDS_P2;PMS_P1;PMS_P2;Temp;Humidity;BMP_temperature;BMP_pressure;BME280_temperature;BME280_humidity;BME280_pressure;Samples;Min_cycle;Max_cycle;Signal;HPM_P1;HPM_P2
2022/07/12 00:02:03;;;;;;;7.18;3.70;;;;;;;14.78;80.44;100393.88;4874890;29;20045;-65
2022/07/12 00:04:30;;;;;;;4.13;3.10;;;;;;;14.78;80.20;100398.34;4873993;29;20092;-65
2022/07/12 00:06:59;;;;;;;3.33;2.97;;;;;;;14.78;80.09;100393.88;4874812;29;20524;-65
2022/07/12 00:09:25;;;;;;;3.55;3.00;;;;;;;14.77;80.27;100404.59;4874494;29;20053;-65
2022/07/12 00:11:52;;;;;;;7.18;3.58;;;;;;;14.73;80.39;100408.38;4874617;29;20045;-63
2022/07/12 00:14:19;;;;;;;5.53;3.85;;;;;;;14.70;80.75;100403.25;4874127;29;20052;-66
2022/07/12 00:16:45;;;;;;;5.60;3.85;;;;;;;14.69;80.66;100407.66;4874414;29;20135;-65
2022/07/12 00:19:12;;;;;;;7.32;4.97;;;;;;;14.68;80.89;100405.97;4875021;29;20056;-67
2022/07/12 00:21:38;;;;;;;5.15;3.70;;;;;;;14.66;80.99;100405.19;4875258;29;20080;-64
2022/07/12 00:24:06;;;;;;;6.45;3.40;;;;;;;14.67;80.65;100411.34;4874913;29;20524;-64
2022/07/12 00:26:33;;;;;;;5.70;4.75;;;;;;;14.62;80.54;100408.09;4875094;29;20073;-64
2022/07/12 00:28:59;;;;;;;5.85;4.25;;;;;;;14.58;80.86;100408.28;4877470;29;20045;-63
2022/07/12 00:31:26;;;;;;;7.22;4.28;;;;;;;14.53;81.43;100407.69;4879684;29;20136;-66
2022/07/12 00:33:53;;;;;;;6.13;4.30;;;;;;;14.49;81.41;100405.25;4874717;29;20132;-65
2022/07/12 00:36:20;;;;;;;7.03;4.97;;;;;;;14.46;81.27;100406.28;4874882;29;20053;-63
2022/07/12 00:38:46;;;;;;;8.15;4.95;;;;;;;14.46;81.87;100405.44;4875235;29;20057;-64
2022/07/12 00:41:14;;;;;;;6.90;4.72;;;;;;;14.46;81.50;100402.78;4874979;29;20067;-65
2022/07/12 00:43:41;;;;;;;5.53;4.47;;;;;;;14.41;81.13;100395.06;4874081;29;20749;-64
2022/07/12 00:46:08;;;;;;;5.93;4.43;;;;;;;14.36;81.64;100390.00;4873576;29;20061;-64
2022/07/12 00:48:36;;;;;;;5.40;3.60;;;;;;;14.33;81.55;100378.72;4874069;29;20057;-65
2022/07/12 00:51:03;;;;;;;5.40;4.57;;;;;;;14.32;81.28;100371.69;4874141;29;20777;-64
2022/07/12 00:53:29;;;;;;;8.25;5.18;;;;;;;14.31;81.22;100375.31;4873967;29;20565;-63
2022/07/12 00:55:57;;;;;;;5.85;4.90;;;;;;;14.33;81.19;100366.31;4873151;29;20080;-63
2022/07/12 00:58:27;;;;;;;9.85;5.03;;;;;;;14.36;81.56;100367.94;4874160;29;20520;-63
2022/07/12 01:00:56;;;;;;;6.13;4.68;;;;;;;14.34;81.40;100365.38;4866090;29;20045;-64
2022/07/12 01:03:22;;;;;;;6.18;4.95;;;;;;;14.32;81.14;100364.63;4874330;29;20053;-64
2022/07/12 01:05:49;;;;;;;8.38;5.45;;;;;;;14.29;80.91;100362.13;4873075;29;20057;-63
2022/07/12 01:08:17;;;;;;;7.78;4.80;;;;;;;14.27;81.20;100363.13;4873936;29;20060;-65
2022/07/12 01:10:44;;;;;;;7.70;5.47;;;;;;;14.26;80.98;100354.34;4873712;29;20057;-65
2022/07/12 01:13:10;;;;;;;5.75;5.15;;;;;;;14.26;80.99;100367.59;4873684;29;20056;-65
2022/07/12 01:15:39;;;;;;;5.97;4.78;;;;;;;14.27;81.00;100358.69;4873547;29;20049;-64
2022/07/12 01:18:06;;;;;;;5.55;3.80;;;;;;;14.29;80.88;100358.63;4873983;29;20497;-65
2022/07/12 01:20:33;;;;;;;7.47;5.63;;;;;;;14.26;81.01;100359.63;4873508;29;20045;-64
2022/07/12 01:23:02;;;;;;;5.85;5.15;;;;;;;14.24;80.92;100361.50;4873764;29;20553;-65
2022/07/12 01:25:29;;;;;;;6.32;5.57;;;;;;;14.22;80.87;100365.19;4879390;29;20055;-65
2022/07/12 01:27:56;;;;;;;8.02;5.55;;;;;;;14.22;81.24;100358.09;4874323;29;20405;-65
2022/07/12 01:30:23;;;;;;;8.43;5.75;;;;;;;14.22;81.49;100362.53;4873450;29;20049;-65
2022/07/12 01:32:50;;;;;;;6.72;6.03;;;;;;;14.23;81.55;100364.28;4872982;29;20560;-64
2022/07/12 01:35:17;;;;;;;6.25;5.65;;;;;;;14.23;81.55;100359.81;4872315;29;20577;-64
2022/07/12 01:37:45;;;;;;;11.55;6.35;;;;;;;14.25;81.43;100363.25;4873154;29;20460;-63
2022/07/12 01:40:14;;;;;;;7.82;7.03;;;;;;;14.24;81.13;100364.16;4873388;29;20548;-64
2022/07/12 01:42:43;;;;;;;8.10;6.53;;;;;;;14.20;81.40;100367.94;4873406;29;20049;-64
2022/07/12 01:45:10;;;;;;;9.02;6.88;;;;;;;14.13;81.35;100372.72;4872523;29;20059;-64
2022/07/12 01:47:37;;;;;;;9.55;6.90;;;;;;;14.08;81.49;100369.47;4874173;29;20073;-63
2022/07/12 01:50:06;;;;;;;9.73;6.80;;;;;;;14.07;81.46;100372.19;4875922;29;20053;-65
2022/07/12 01:52:34;;;;;;;12.65;6.70;;;;;;;14.05;81.63;100371.41;4874191;29;20069;-64
2022/07/12 01:55:01;;;;;;;8.13;7.32;;;;;;;14.03;81.29;100375.94;4872186;29;20097;-64
2022/07/12 01:57:29;;;;;;;7.05;6.32;;;;;;;14.00;81.89;100376.13;4872966;29;20049;-64
2022/07/12 01:59:56;;;;;;;9.38;7.78;;;;;;;14.01;81.09;100380.50;4873280;29;20048;-64
2022/07/12 02:02:25;;;;;;;9.35;7.40;;;;;;;14.01;81.19;100380.50;4873250;29;20082;-64
2022/07/12 02:04:52;;;;;;;13.07;8.20;;;;;;;14.02;81.10;100379.53;4872070;29;20141;-64
2022/07/12 02:07:19;;;;;;;8.43;7.57;;;;;;;14.02;81.62;100374.25;4872821;29;20067;-64
2022/07/12 02:09:45;;;;;;;7.63;6.82;;;;;;;13.95;81.30;100371.94;4872935;29;20049;-64
2022/07/12 02:12:12;;;;;;;8.35;7.47;;;;;;;13.90;81.75;100371.28;4873173;29;20528;-64
2022/07/12 02:14:40;;;;;;;12.55;8.65;;;;;;;13.81;81.66;100366.50;4872820;29;20053;-65
2022/07/12 02:17:06;;;;;;;14.15;8.05;;;;;;;13.76;81.94;100371.19;4873975;29;20076;-65
2022/07/12 02:19:33;;;;;;;8.77;7.78;;;;;;;13.74;82.08;100375.72;4872128;29;20131;-65
2022/07/12 02:21:59;;;;;;;11.18;9.73;;;;;;;13.75;81.73;100374.78;4880381;29;20136;-65
2022/07/12 02:24:26;;;;;;;11.18;8.25;;;;;;;13.73;81.70;100374.00;4872388;29;20428;-65
2022/07/12 02:26:53;;;;;;;14.25;9.05;;;;;;;13.74;81.67;100370.41;4873420;29;20159;-64
2022/07/12 02:29:19;;;;;;;11.50;9.43;;;;;;;13.72;81.47;100372.28;4873386;29;20057;-64
2022/07/12 02:31:47;;;;;;;9.65;8.60;;;;;;;13.68;82.20;100384.88;4872426;29;20063;-64
2022/07/12 02:34:14;;;;;;;11.73;8.25;;;;;;;13.66;81.85;100377.91;4872050;29;20057;-65
2022/07/12 02:36:40;;;;;;;13.90;9.30;;;;;;;13.63;81.66;100380.72;4872164;29;20067;-65
2022/07/12 02:39:07;;;;;;;13.05;10.73;;;;;;;13.63;81.68;100380.72;4873160;29;20049;-65
2022/07/12 02:41:34;;;;;;;14.48;9.52;;;;;;;13.63;82.42;100383.38;4872490;29;20052;-65
2022/07/12 02:44:01;;;;;;;12.25;9.98;;;;;;;13.66;81.85;100377.91;4872075;29;20057;-65
2022/07/12 02:46:28;;;;;;;11.48;10.18;;;;;;;13.64;81.87;100380.66;4875803;29;20064;-65
2022/07/12 02:48:56;;;;;;;12.45;9.32;;;;;;;13.62;82.10;100379.00;4876133;29;20645;-65
2022/07/12 02:51:22;;;;;;;18.30;9.23;;;;;;;13.61;81.43;100372.00;4876056;29;20057;-65
2022/07/12 02:53:49;;;;;;;17.35;11.02;;;;;;;13.58;81.74;100378.31;4876011;29;20056;-66
2022/07/12 02:56:15;;;;;;;11.65;9.77;;;;;;;13.56;81.86;100382.84;4875215;29;20059;-65
2022/07/12 02:58:42;;;;;;;14.13;11.85;;;;;;;13.53;81.80;100388.28;4876297;29;20410;-65
2022/07/12 03:01:08;;;;;;;13.05;9.45;;;;;;;13.48;81.85;100390.31;4876528;29;20052;-65
2022/07/12 03:03:35;;;;;;;15.13;11.40;;;;;;;13.44;82.11;100389.63;4876489;29;20084;-65
2022/07/12 03:06:03;;;;;;;14.43;10.82;;;;;;;13.40;82.16;100388.06;4875283;29;20059;-65
2022/07/12 03:08:30;;;;;;;11.80;10.57;;;;;;;13.34;82.62;100391.03;4875779;29;20057;-64
2022/07/12 03:10:56;;;;;;;11.27;9.85;;;;;;;13.29;82.53;100385.97;4875921;29;20152;-64
2022/07/12 03:13:23;;;;;;;10.93;9.82;;;;;;;13.29;82.39;100377.16;4875303;29;20088;-65
2022/07/12 03:15:50;;;;;;;12.00;10.73;;;;;;;13.26;81.63;100380.78;4874922;29;20104;-65
2022/07/12 03:18:17;;;;;;;12.73;11.13;;;;;;;13.25;82.11;100381.72;4883488;29;20053;-65
2022/07/12 03:20:44;;;;;;;10.80;9.65;;;;;;;13.26;82.21;100379.94;4875879;29;20453;-65
2022/07/12 03:23:12;;;;;;;15.18;11.50;;;;;;;13.23;82.23;100380.09;4876391;29;20055;-65
2022/07/12 03:25:38;;;;;;;13.73;11.02;;;;;;;13.18;82.30;100379.47;4875410;29;20128;-64
2022/07/12 03:28:05;;;;;;;16.00;12.90;;;;;;;13.16;81.92;100371.59;4875877;29;20065;-65
2022/07/12 03:30:31;;;;;;;13.82;11.90;;;;;;;13.15;82.20;100377.00;4875549;29;20059;-65
2022/07/12 03:32:58;;;;;;;11.73;10.05;;;;;;;13.22;82.88;100375.75;4875845;29;20045;-64
2022/07/12 03:35:25;;;;;;;10.35;9.35;;;;;;;13.30;82.48;100385.03;4875027;29;20063;-64
2022/07/12 03:37:52;;;;;;;12.70;11.15;;;;;;;13.27;81.32;100379.91;4875361;29;20045;-65
2022/07/12 03:40:21;;;;;;;14.55;12.75;;;;;;;13.26;80.85;100372.00;4875482;29;20061;-65
2022/07/12 03:42:48;;;;;;;12.18;10.20;;;;;;;13.24;82.20;100373.84;4875076;29;20045;-64
2022/07/12 03:45:16;;;;;;;13.13;10.25;;;;;;;13.29;81.52;100385.97;4874250;29;20077;-65
2022/07/12 03:47:42;;;;;;;11.82;10.20;;;;;;;13.30;81.99;100385.03;4875564;29;20049;-65
2022/07/12 03:50:12;;;;;;;15.25;10.88;;;;;;;13.33;81.66;100391.97;4875541;29;20524;-65
2022/07/12 03:52:39;;;;;;;14.88;12.02;;;;;;;13.30;81.17;100389.47;4875444;29;20410;-64
2022/07/12 03:55:07;;;;;;;14.00;10.90;;;;;;;13.30;81.64;100385.03;4873828;29;20509;-65
2022/07/12 03:57:35;;;;;;;19.80;12.48;;;;;;;13.31;81.69;100393.81;4874910;29;20136;-65
2022/07/12 04:00:04;;;;;;;13.02;11.32;;;;;;;13.25;81.38;100389.66;4875236;29;20121;-64
2022/07/12 04:02:30;;;;;;;14.10;12.07;;;;;;;13.23;81.47;100395.97;4875281;29;20080;-65
2022/07/12 04:04:57;;;;;;;17.83;12.32;;;;;;;13.14;81.88;100399.09;4874475;29;20053;-64
2022/07/12 04:07:23;;;;;;;16.85;11.23;;;;;;;13.09;82.42;100404.59;4874867;29;20051;-64
2022/07/12 04:09:50;;;;;;;12.13;10.80;;;;;;;13.07;82.02;100396.75;4874603;29;20536;-64
2022/07/12 04:12:16;;;;;;;15.45;13.27;;;;;;;13.05;81.20;100395.97;4874099;29;20417;-63
2022/07/12 04:14:44;;;;;;;19.40;13.25;;;;;;;13.06;82.17;100400.31;4881576;29;20041;-64
2022/07/12 04:17:11;;;;;;;13.63;10.05;;;;;;;13.04;82.45;100399.56;4874943;29;20603;-64
2022/07/12 04:19:37;;;;;;;13.95;11.55;;;;;;;13.06;81.97;100407.41;4874784;29;20703;-64
2022/07/12 04:22:04;;;;;;;14.93;13.30;;;;;;;13.08;82.30;100411.69;4874327;29;20056;-64
2022/07/12 04:24:31;;;;;;;14.75;12.90;;;;;;;13.13;81.97;100413.28;4873931;29;20049;-64
2022/07/12 04:26:57;;;;;;;15.55;13.65;;;;;;;13.13;82.00;100411.47;4874060;29;20049;-64
2022/07/12 04:29:24;;;;;;;13.18;11.07;;;;;;;13.18;82.33;100414.75;4874716;29;20140;-64
2022/07/12 04:31:52;;;;;;;14.52;11.02;;;;;;;13.25;82.24;100415.31;4874335;29;20049;-64
2022/07/12 04:34:18;;;;;;;18.13;12.60;;;;;;;13.32;82.01;100422.03;4874067;29;20049;-63
2022/07/12 04:36:46;;;;;;;21.52;12.55;;;;;;;13.40;82.16;100416.34;4874204;29;20055;-63
2022/07/12 04:39:13;;;;;;;13.02;11.25;;;;;;;13.44;82.14;100418.78;4873959;29;20417;-63
2022/07/12 04:41:39;;;;;;;13.98;12.38;;;;;;;13.47;81.94;100415.97;4874224;29;20051;-64
2022/07/12 04:44:07;;;;;;;17.20;13.18;;;;;;;13.53;82.04;100420.06;4873715;29;20045;-64
2022/07/12 04:46:33;;;;;;;15.20;12.27;;;;;;;13.57;81.52;100412.84;4873567;29;20045;-64
2022/07/12 04:49:01;;;;;;;16.55;13.10;;;;;;;13.60;82.38;100413.53;4873915;29;20048;-64
2022/07/12 04:51:28;;;;;;;14.25;12.18;;;;;;;13.63;82.81;100404.56;4874166;29;20136;-65
2022/07/12 04:53:55;;;;;;;16.67;12.63;;;;;;;13.65;82.67;100408.84;4873529;29;20040;-66
2022/07/12 04:56:22;;;;;;;14.70;12.63;;;;;;;13.71;82.59;100397.94;4873874;29;20045;-65
2022/07/12 04:58:49;;;;;;;20.63;14.02;;;;;;;13.74;82.41;100391.63;4873879;29;20045;-66
2022/07/12 05:01:16;;;;;;;18.20;14.55;;;;;;;13.80;82.77;100399.22;4874004;29;20428;-64
2022/07/12 05:03:43;;;;;;;15.98;13.25;;;;;;;13.85;82.30;100396.34;4873301;29;20131;-65
2022/07/12 05:06:11;;;;;;;20.15;13.60;;;;;;;13.92;82.08;100393.28;4873414;29;20055;-63
2022/07/12 05:08:38;;;;;;;16.05;13.82;;;;;;;14.00;81.87;100392.03;4872614;29;20055;-62
2022/07/12 05:11:05;;;;;;;15.85;12.35;;;;;;;14.11;81.69;100394.97;4881295;29;20049;-63
2022/07/12 05:13:32;;;;;;;15.57;11.20;;;;;;;14.26;81.61;100395.91;4873793;29;20067;-64
2022/07/12 05:15:59;;;;;;;19.38;12.85;;;;;;;14.41;80.96;100396.88;4875002;29;20057;-64
2022/07/12 05:18:25;;;;;;;15.20;12.48;;;;;;;14.58;81.24;100404.78;4878698;29;20112;-65
2022/07/12 05:20:52;;;;;;;15.30;13.27;;;;;;;14.75;80.37;100409.16;4874734;29;20049;-65
2022/07/12 05:23:20;;;;;;;17.02;14.02;;;;;;;14.89;80.04;100403.91;4874179;29;20072;-65
2022/07/12 05:25:47;;;;;;;14.48;12.98;;;;;;;15.01;79.50;100407.63;4872892;29;20052;-65
2022/07/12 05:28:14;;;;;;;25.17;14.18;;;;;;;15.12;79.30;100407.88;4873574;29;20436;-65
2022/07/12 05:30:41;;;;;;;12.60;11.30;;;;;;;15.25;78.95;100416.84;4873866;29;20493;-64
2022/07/12 05:33:08;;;;;;;15.07;12.43;;;;;;;15.38;78.69;100411.69;4873515;29;20051;-65
2022/07/12 05:35:34;;;;;;;12.70;10.95;;;;;;;15.53;78.25;100412.56;4872472;29;20055;-65
2022/07/12 05:38:01;;;;;;;11.90;10.57;;;;;;;15.71;77.75;100426.56;4873237;29;20517;-65
2022/07/12 05:40:29;;;;;;;18.23;10.45;;;;;;;15.94;77.32;100434.97;4873373;29;20513;-65
2022/07/12 05:42:55;;;;;;;18.35;10.80;;;;;;;16.39;75.34;100428.59;4873185;29;20041;-65
2022/07/12 05:45:22;;;;;;;12.52;10.70;;;;;;;16.96;74.75;100424.97;4872101;29;20056;-66
2022/07/12 05:47:49;;;;;;;13.35;10.85;;;;;;;17.39;72.37;100422.94;4873239;29;20052;-64
2022/07/12 05:50:16;;;;;;;15.10;13.15;;;;;;;17.54;70.77;100412.22;4873268;29;20079;-65
2022/07/12 05:55:26;;;;;;;10.20;8.98;;;;;;;17.62;71.82;100409.00;4879750;29;20412;-64
2022/07/12 05:57:54;;;;;;;18.27;12.85;;;;;;;17.74;71.51;100408.16;4882374;29;20053;-65
2022/07/12 06:00:21;;;;;;;13.45;9.68;;;;;;;17.81;72.63;100409.50;4880650;29;20064;-65
2022/07/12 06:02:47;;;;;;;13.35;11.88;;;;;;;17.92;71.53;100411.44;4873650;29;20059;-64
2022/07/12 06:05:14;;;;;;;13.30;11.68;;;;;;;17.99;70.87;100418.91;4872855;29;20059;-65
2022/07/12 06:07:41;;;;;;;10.77;9.68;;;;;;;18.15;70.98;100417.81;4881459;29;20139;-66
2022/07/12 06:10:08;;;;;;;11.15;9.57;;;;;;;18.24;70.08;100423.34;4873763;29;20055;-64
2022/07/12 06:12:34;;;;;;;12.45;10.98;;;;;;;18.32;70.86;100422.78;4873730;29;20135;-66
2022/07/12 06:15:02;;;;;;;9.68;8.68;;;;;;;18.50;69.93;100425.09;4872809;29;20048;-65
2022/07/12 06:17:29;;;;;;;13.05;8.80;;;;;;;18.67;69.46;100427.41;4873189;29;20061;-65
2022/07/12 06:19:55;;;;;;;9.38;8.43;;;;;;;18.82;68.72;100434.31;4873071;29;20052;-66
2022/07/12 06:22:22;;;;;;;10.75;9.65;;;;;;;19.02;67.95;100438.19;4873677;29;20326;-65
2022/07/12 06:24:48;;;;;;;9.70;8.73;;;;;;;19.13;66.52;100444.59;4872614;29;20128;-49
2022/07/12 06:27:15;;;;;;;9.30;7.80;;;;;;;19.38;65.06;100446.28;4880486;29;20057;-48
2022/07/12 06:29:47;;;;;;;7.63;6.57;;;;;;;19.53;64.78;100448.63;4881752;29;20529;-46
2022/07/12 06:32:15;;;;;;;9.20;8.10;;;;;;;19.64;64.42;100442.47;4881033;29;20053;-48
2022/07/12 06:34:42;;;;;;;8.52;7.57;;;;;;;19.62;64.39;100444.41;4876957;29;20048;-49
2022/07/12 06:37:08;;;;;;;9.55;8.45;;;;;;;19.51;64.96;100439.84;4873462;29;20136;-48
2022/07/12 06:39:35;;;;;;;9.70;7.38;;;;;;;19.59;63.49;100443.78;4873570;29;20037;-47
2022/07/12 06:42:03;;;;;;;7.95;6.00;;;;;;;19.68;64.38;100453.81;4873486;29;20478;-47
2022/07/12 06:44:30;;;;;;;8.45;7.55;;;;;;;19.87;62.54;100454.09;4872186;29;20429;-49
2022/07/12 06:46:56;;;;;;;9.15;6.72;;;;;;;19.91;62.02;100452.91;4873207;29;20055;-54
2022/07/12 06:49:24;;;;;;;9.73;6.75;;;;;;;19.99;62.77;100454.13;4872611;29;20083;-48
2022/07/12 06:51:51;;;;;;;6.30;5.70;;;;;;;20.32;61.08;100462.16;4873108;29;20051;-46
2022/07/12 06:54:17;;;;;;;10.43;6.85;;;;;;;20.52;63.74;100465.09;4872255;29;20053;-49
2022/07/12 06:56:44;;;;;;;7.18;6.47;;;;;;;20.76;59.70;100460.47;4873155;29;20140;-49
2022/07/12 06:59:11;;;;;;;8.00;5.90;;;;;;;20.80;59.17;100461.94;4873516;29;20109;-48
2022/07/12 07:01:37;;;;;;;6.05;5.30;;;;;;;20.72;58.88;100464.38;4873034;29;20076;-48
2022/07/12 07:04:05;;;;;;;5.15;4.65;;;;;;;20.84;59.16;100459.00;4880032;29;20420;-47
2022/07/12 07:06:32;;;;;;;6.55;5.43;;;;;;;20.94;58.98;100458.09;4873271;29;20057;-50
2022/07/12 07:08:59;;;;;;;5.65;4.97;;;;;;;21.10;57.89;100462.22;4873051;29;20048;-46
2022/07/12 07:11:26;;;;;;;4.47;4.07;;;;;;;21.26;57.44;100461.78;4873176;29;20049;-46
2022/07/12 07:13:55;;;;;;;5.28;4.38;;;;;;;21.39;57.21;100458.00;4872899;29;20105;-45
2022/07/12 07:16:23;;;;;;;5.93;4.35;;;;;;;21.46;57.07;100458.31;4873210;29;20057;-65
2022/07/12 07:18:50;;;;;;;5.30;4.80;;;;;;;21.53;56.69;100464.88;4873442;29;20052;-65
2022/07/12 07:21:16;;;;;;;5.80;4.43;;;;;;;21.61;57.01;100465.09;4873040;29;20049;-66
2022/07/12 07:23:44;;;;;;;5.43;4.68;;;;;;;21.68;55.81;100467.22;4872865;29;20055;-65
2022/07/12 07:26:11;;;;;;;10.18;4.85;;;;;;;21.77;55.52;100461.09;4872883;29;20140;-65
2022/07/12 07:30:52;;;;;;;5.15;4.38;;;;;;;21.97;55.43;100462.91;4873218;29;20049;-64
2022/07/12 07:31:23;;;;;;;6.07;5.00;;;;;;;22.15;54.74;100464.97;4874554;29;20417;-64
2022/07/12 07:33:50;;;;;;;4.82;4.30;;;;;;;22.07;53.77;100463.81;4876346;29;20045;-65
2022/07/12 07:36:16;;;;;;;6.10;5.07;;;;;;;22.28;53.52;100454.91;4875720;29;20136;-65
2022/07/12 07:38:44;;;;;;;11.30;5.38;;;;;;;22.51;53.81;100464.47;4876122;29;20049;-65
2022/07/12 07:41:11;;;;;;;6.47;4.63;;;;;;;22.85;52.36;100469.53;4876535;29;20498;-64
2022/07/12 07:43:37;;;;;;;4.78;4.15;;;;;;;22.97;51.53;100467.56;4876341;29;20049;-65
2022/07/12 07:46:04;;;;;;;4.05;3.63;;;;;;;23.20;50.49;100465.50;4875297;29;20053;-66
2022/07/12 07:48:31;;;;;;;4.88;4.38;;;;;;;23.24;49.82;100468.78;4875979;29;20052;-65
2022/07/12 07:50:57;;;;;;;4.72;3.58;;;;;;;23.42;50.81;100471.59;4875757;29;20528;-65
2022/07/12 07:53:24;;;;;;;4.60;3.67;;;;;;;23.59;51.03;100473.59;4875987;29;20548;-66
2022/07/12 07:55:52;;;;;;;5.40;4.82;;;;;;;23.72;50.28;100466.06;4875256;29;20127;-65
2022/07/12 07:58:20;;;;;;;6.40;4.63;;;;;;;23.71;50.89;100464.38;4875713;29;20145;-65
2022/07/12 08:00:47;;;;;;;4.95;4.18;;;;;;;23.55;50.82;100461.41;4883226;29;20493;-64
2022/07/12 08:03:13;;;;;;;4.05;3.65;;;;;;;23.60;50.94;100477.97;4874648;29;20143;-64
2022/07/12 08:05:40;;;;;;;4.30;3.45;;;;;;;23.69;49.99;100471.72;4873782;29;20053;-64
2022/07/12 08:08:07;;;;;;;4.57;3.65;;;;;;;23.78;49.35;100470.91;4874580;29;20052;-65
2022/07/12 08:10:34;;;;;;;9.13;3.83;;;;;;;23.75;49.32;100473.91;4875113;29;20091;-64
2022/07/12 08:13:02;;;;;;;5.03;3.92;;;;;;;23.67;49.74;100471.00;4875545;29;20109;-65
2022/07/12 08:15:28;;;;;;;4.03;3.10;;;;;;;23.72;49.72;100479.50;4874471;29;20128;-65
2022/07/12 08:17:55;;;;;;;4.30;3.53;;;;;;;23.82;48.64;100484.06;4875449;29;20044;-64
2022/07/12 08:20:22;;;;;;;4.45;3.80;;;;;;;23.92;48.91;100475.00;4875287;29;20064;-64
2022/07/12 08:22:49;;;;;;;4.18;3.47;;;;;;;23.86;48.10;100480.09;4875139;29;20053;-64
2022/07/12 08:25:16;;;;;;;7.65;4.30;;;;;;;24.05;47.59;100476.53;4874675;29;20425;-65
2022/07/12 08:27:43;;;;;;;3.80;3.45;;;;;;;24.02;47.29;100476.81;4875301;29;20053;-65
2022/07/12 08:30:11;;;;;;;3.22;2.78;;;;;;;24.23;47.21;100476.63;4875896;29;20417;-66
2022/07/12 08:32:43;;;;;;;4.18;3.22;;;;;;;24.27;46.43;100480.69;4875249;29;20052;-65
2022/07/12 08:35:10;;;;;;;3.88;3.05;;;;;;;24.12;45.64;100481.19;4874670;29;20494;-65
2022/07/12 08:37:36;;;;;;;4.47;3.00;;;;;;;24.06;45.93;100470.13;4874748;29;20060;-65
2022/07/12 08:40:04;;;;;;;3.25;2.47;;;;;;;24.11;44.85;100474.09;4875183;29;20064;-65
2022/07/12 08:42:30;;;;;;;3.70;2.60;;;;;;;24.09;45.17;100467.16;4874118;29;20049;-65
2022/07/12 08:44:58;;;;;;;4.63;2.25;;;;;;;23.96;45.22;100460.22;4874189;29;20607;-65
2022/07/12 08:47:26;;;;;;;8.10;2.65;;;;;;;24.12;44.84;100464.16;4875564;29;20386;-65
2022/07/12 08:50:12;;;;;;;4.32;2.72;;;;;;;24.05;45.43;100461.22;4876494;29;20056;-65
2022/07/12 08:52:41;;;;;;;3.00;2.30;;;;;;;23.87;44.63;100452.16;4875256;29;20506;-64
2022/07/12 08:55:18;;;;;;;2.85;2.10;;;;;;;24.24;43.50;100452.19;4878061;29;20052;-65
2022/07/12 08:57:45;;;;;;;2.28;1.80;;;;;;;24.79;42.38;100446.03;4876665;29;20041;-65
2022/07/12 09:00:12;;;;;;;3.67;2.25;;;;;;;25.24;41.42;100448.69;4874936;29;20561;-65
2022/07/12 09:02:51;;;;;;;11.77;2.15;;;;;;;25.55;42.00;100450.13;4874942;29;20041;-64
2022/07/12 09:05:19;;;;;;;2.75;2.15;;;;;;;26.20;39.78;100447.94;4873945;29;20589;-66
2022/07/12 09:07:46;;;;;;;3.97;2.47;;;;;;;26.98;39.19;100441.50;4874653;29;20057;-65
2022/07/12 09:10:14;;;;;;;3.13;2.13;;;;;;;27.33;37.84;100437.69;4874975;29;20053;-65
2022/07/12 09:12:41;;;;;;;8.55;2.97;;;;;;;27.45;37.85;100432.78;4875212;29;20049;-65
2022/07/12 09:15:19;;;;;;;5.63;4.85;;;;;;;27.41;38.09;100426.84;4873931;29;20049;-65
2022/07/12 09:17:57;;;;;;;3.00;2.30;;;;;;;27.29;37.50;100419.22;4874304;29;20049;-64
2022/07/12 09:20:26;;;;;;;2.17;1.67;;;;;;;27.41;36.99;100429.53;4874358;29;20081;-64
2022/07/12 09:22:54;;;;;;;2.60;2.05;;;;;;;27.69;36.40;100429.22;4874344;29;20037;-64
2022/07/12 09:25:21;;;;;;;3.17;2.00;;;;;;;27.37;37.83;100432.78;4873377;29;20049;-64
2022/07/12 09:27:52;;;;;;;1.83;1.50;;;;;;;27.84;35.44;100434.81;4874316;29;20073;-65
2022/07/12 09:30:19;;;;;;;1.95;1.60;;;;;;;28.34;34.47;100430.09;4874255;29;20053;-65
2022/07/12 09:36:07;;;;;;;1.67;1.58;;;;;;;29.06;33.58;100427.22;4877773;29;20100;-65
2022/07/12 09:38:34;;;;;;;2.95;2.15;;;;;;;29.93;33.05;100422.25;4889422;29;20069;-66
2022/07/12 09:41:01;;;;;;;2.90;2.60;;;;;;;30.70;32.05;100425.59;4886386;29;20051;-66
2022/07/12 09:43:28;;;;;;;3.92;2.25;;;;;;;31.06;31.13;100425.59;4873590;29;20136;-66
2022/07/12 09:45:55;;;;;;;4.65;2.10;;;;;;;31.16;30.62;100425.28;4873158;29;20132;-64
2022/07/12 09:48:24;;;;;;;2.72;1.70;;;;;;;31.62;29.94;100431.19;4874017;29;20072;-64
2022/07/12 09:50:52;;;;;;;2.40;1.98;;;;;;;32.09;29.97;100431.53;4875272;29;20045;-64
2022/07/12 09:53:28;;;;;;;2.55;2.17;;;;;;;32.39;28.73;100431.28;4878687;29;20543;-66
2022/07/12 09:55:55;;;;;;;3.90;1.85;;;;;;;32.47;28.93;100436.59;4873043;29;20051;-64
2022/07/12 09:58:26;;;;;;;2.92;2.35;;;;;;;32.37;28.62;100436.13;4874062;29;20155;-64
2022/07/12 10:00:54;;;;;;;2.17;1.98;;;;;;;32.64;28.13;100439.84;4874183;29;20136;-64
2022/07/12 10:03:24;;;;;;;2.53;1.92;;;;;;;32.99;27.63;100437.84;4873869;29;20071;-64
2022/07/12 10:05:52;;;;;;;2.22;1.80;;;;;;;33.38;27.05;100436.25;4873086;29;20073;-64
2022/07/12 10:08:21;;;;;;;4.43;1.92;;;;;;;33.40;26.88;100431.44;4873244;29;20056;-64
2022/07/12 10:10:49;;;;;;;6.28;3.30;;;;;;;32.80;27.16;100438.63;4873571;29;20462;-65
2022/07/12 10:13:17;;;;;;;3.97;2.22;;;;;;;33.09;27.55;100435.56;4873879;29;20076;-64
2022/07/12 10:15:46;;;;;;;2.70;1.85;;;;;;;33.81;26.19;100427.63;4872604;29;20523;-66
2022/07/12 10:18:17;;;;;;;3.00;2.20;;;;;;;33.84;26.29;100437.31;4873940;29;20097;-65
2022/07/12 10:20:46;;;;;;;3.45;1.98;;;;;;;33.81;25.43;100441.31;4872920;29;20049;-66
2022/07/12 10:23:34;;;;;;;2.92;2.13;;;;;;;33.87;25.60;100432.28;4873886;29;20055;-65
2022/07/12 10:26:22;;;;;;;1.70;1.60;;;;;;;33.59;25.01;100437.13;4872488;29;20056;-65
2022/07/12 10:28:56;;;;;;;3.45;2.22;;;;;;;34.05;23.59;100433.50;4873375;29;20045;-65
2022/07/12 10:31:25;;;;;;;1.70;1.50;;;;;;;34.22;23.12;100439.38;4873245;29;20060;-65
2022/07/12 10:34:08;;;;;;;1.77;1.52;;;;;;;34.10;23.36;100433.72;4873025;29;20051;-65
2022/07/12 10:37:08;;;;;;;2.37;1.70;;;;;;;34.01;23.30;100424.88;4873113;29;20556;-65
2022/07/12 10:39:35;;;;;;;3.83;1.73;;;;;;;34.28;23.01;100422.09;4873505;29;20045;-65
2022/07/12 10:42:15;;;;;;;4.97;1.65;;;;;;;34.17;23.39;100429.09;4873348;29;20504;-66
2022/07/12 10:44:44;;;;;;;2.20;1.75;;;;;;;34.46;23.49;100419.50;4872488;29;20053;-65
2022/07/12 10:47:13;;;;;;;1.92;1.35;;;;;;;34.63;23.06;100417.97;4877131;29;20127;-66
2022/07/12 10:49:46;;;;;;;1.98;1.77;;;;;;;34.26;22.72;100411.34;4875792;29;20157;-65
2022/07/12 10:52:26;;;;;;;1.92;1.58;;;;;;;33.92;23.30;100409.75;4873287;29;20066;-65
2022/07/12 10:55:19;;;;;;;2.00;1.60;;;;;;;33.89;23.40;100413.75;4872416;29;20501;-65
2022/07/12 10:57:49;;;;;;;1.77;1.38;;;;;;;33.81;22.32;100419.44;4872973;29;20493;-65
2022/07/12 11:00:16;;;;;;;2.13;1.40;;;;;;;34.20;21.96;100410.31;4873116;29;20528;-66
2022/07/12 11:02:43;;;;;;;1.95;1.50;;;;;;;34.03;22.74;100410.97;4873659;29;20665;-65
2022/07/12 11:05:10;;;;;;;2.33;1.45;;;;;;;33.44;23.92;100420.91;4873153;29;20045;-66
2022/07/12 11:07:38;;;;;;;2.47;1.55;;;;;;;32.84;24.91;100421.63;4876845;29;20053;-65
2022/07/12 11:10:06;;;;;;;1.67;1.25;;;;;;;32.04;25.23;100412.19;4876774;29;20513;-65
2022/07/12 11:12:33;;;;;;;2.22;1.35;;;;;;;31.77;26.01;100411.16;4876576;29;20133;-64
2022/07/12 11:15:00;;;;;;;1.90;1.40;;;;;;;31.26;26.47;100404.03;4875448;29;20053;-65
2022/07/12 11:17:27;;;;;;;1.65;1.40;;;;;;;30.72;27.07;100408.03;4876008;29;20053;-66
2022/07/12 11:20:05;;;;;;;1.38;1.27;;;;;;;30.48;26.53;100411.94;4876336;29;20528;-65
2022/07/12 11:22:32;;;;;;;4.00;1.80;;;;;;;30.27;26.89;100400.97;4876167;29;20072;-66
2022/07/12 11:25:00;;;;;;;1.27;1.10;;;;;;;30.25;27.75;100400.31;4875604;29;20049;-66
2022/07/12 11:27:28;;;;;;;1.73;1.40;;;;;;;30.16;27.65;100394.13;4875930;29;20057;-65
2022/07/12 11:29:58;;;;;;;1.52;1.30;;;;;;;29.94;27.51;100380.44;4876412;29;20053;-65